sensor_id;sensor_type;location;lat;lon;timestamp;temperature;humidity
14057;DHT22;7103;54.300;10.180;2023-12-22T00:02:22;5.80;99.90
14057;DHT22;7103;54.300;10.180;2023-12-22T00:04:52;5.70;99.90
14057;DHT22;7103;54.300;10.180;2023-12-22T00:07:19;5.70;99.90
14057;DHT22;7103;54.300;10.180;2023-12-22T00:09:47;5.70;99.90
14057;DHT22;7103;54.300;10.180;2023-12-22T00:12:14;5.80;99.90
14057;DHT22;7103;54.300;10.180;2023-12-22T00:14:41;5.80;99.90
14057;DHT22;7103;54.300;10.180;2023-12-22T00:17:08;5.60;99.90
14057;DHT22;7103;54.300;10.180;2023-12-22T00:19:35;5.60;99.90
14057;DHT22;7103;54.300;10.180;2023-12-22T00:22:02;5.50;99.90
14057;DHT22;7103;54.300;10.180;2023-12-22T00:24:30;5.50;99.90
14057;DHT22;7103;54.300;10.180;2023-12-22T00:26:57;5.50;99.90
14057;DHT22;7103;54.300;10.180;2023-12-22T00:29:24;5.50;99.90
14057;DHT22;7103;54.300;10.180;2023-12-22T00:31:51;5.40;99.90
14057;DHT22;7103;54.300;10.180;2023-12-22T00:34:19;5.40;99.90
14057;DHT22;7103;54.300;10.180;2023-12-22T00:36:46;5.30;99.90
14057;DHT22;7103;54.300;10.180;2023-12-22T00:39:13;5.40;99.90
14057;DHT22;7103;54.300;10.180;2023-12-22T00:41:40;5.40;99.90
14057;DHT22;7103;54.300;10.180;2023-12-22T00:44:07;5.40;99.90
14057;DHT22;7103;54.300;10.180;2023-12-22T00:46:34;5.30;99.90
14057;DHT22;7103;54.300;10.180;2023-12-22T00:49:01;5.30;99.90
14057;DHT22;7103;54.300;10.180;2023-12-22T00:51:29;5.40;99.90
14057;DHT22;7103;54.300;10.180;2023-12-22T00:53:55;5.40;99.90
14057;DHT22;7103;54.300;10.180;2023-12-22T00:56:22;5.30;99.90
14057;DHT22;7103;54.300;10.180;2023-12-22T00:58:49;5.40;99.90
14057;DHT22;7103;54.300;10.180;2023-12-22T01:01:28;5.40;99.90
14057;DHT22;7103;54.300;10.180;2023-12-22T01:03:55;5.30;99.90
14057;DHT22;7103;54.300;10.180;2023-12-22T01:06:22;5.20;99.90
14057;DHT22;7103;54.300;10.180;2023-12-22T01:08:52;5.40;99.90
14057;DHT22;7103;54.300;10.180;2023-12-22T01:11:19;5.50;99.90
14057;DHT22;7103;54.300;10.180;2023-12-22T01:13:46;5.30;99.90
14057;DHT22;7103;54.300;10.180;2023-12-22T01:16:13;5.50;99.90
14057;DHT22;7103;54.300;10.180;2023-12-22T01:18:42;5.50;99.90
14057;DHT22;7103;54.300;10.180;2023-12-22T01:21:11;5.40;99.90
14057;DHT22;7103;54.300;10.180;2023-12-22T01:23:38;5.30;99.90
14057;DHT22;7103;54.300;10.180;2023-12-22T01:26:05;5.40;99.90
14057;DHT22;7103;54.300;10.180;2023-12-22T01:28:36;5.30;99.90
14057;DHT22;7103;54.300;10.180;2023-12-22T01:31:03;5.30;99.90
14057;DHT22;7103;54.300;10.180;2023-12-22T01:33:31;5.30;99.90
14057;DHT22;7103;54.300;10.180;2023-12-22T01:35:57;5.30;99.90
14057;DHT22;7103;54.300;10.180;2023-12-22T01:38:24;5.40;1.00
14057;DHT22;7103;54.300;10.180;2023-12-22T01:40:51;5.30;1.00
14057;DHT22;7103;54.300;10.180;2023-12-22T01:43:18;5.30;1.00
14057;DHT22;7103;54.300;10.180;2023-12-22T01:45:54;5.30;1.00
14057;DHT22;7103;54.300;10.180;2023-12-22T01:48:23;5.40;1.00
14057;DHT22;7103;54.300;10.180;2023-12-22T01:50:51;5.30;1.00
14057;DHT22;7103;54.300;10.180;2023-12-22T01:53:20;5.30;1.00
14057;DHT22;7103;54.300;10.180;2023-12-22T01:55:48;5.30;1.00
14057;DHT22;7103;54.300;10.180;2023-12-22T01:58:16;5.30;1.00
14057;DHT22;7103;54.300;10.180;2023-12-22T02:00:44;5.20;1.00
14057;DHT22;7103;54.300;10.180;2023-12-22T02:03:12;5.20;1.00
14057;DHT22;7103;54.300;10.180;2023-12-22T02:05:41;5.40;1.00
14057;DHT22;7103;54.300;10.180;2023-12-22T02:08:08;5.30;1.00
14057;DHT22;7103;54.300;10.180;2023-12-22T02:10:36;5.40;1.00
14057;DHT22;7103;54.300;10.180;2023-12-22T02:13:12;5.30;1.00
14057;DHT22;7103;54.300;10.180;2023-12-22T02:15:39;5.20;1.00
14057;DHT22;7103;54.300;10.180;2023-12-22T02:18:10;5.30;1.00
14057;DHT22;7103;54.300;10.180;2023-12-22T02:20:39;5.40;1.00
14057;DHT22;7103;54.300;10.180;2023-12-22T02:23:06;5.50;1.00
14057;DHT22;7103;54.300;10.180;2023-12-22T02:25:39;5.50;1.00
14057;DHT22;7103;54.300;10.180;2023-12-22T02:28:09;5.50;1.00
14057;DHT22;7103;54.300;10.180;2023-12-22T02:31:00;5.40;1.00
14057;DHT22;7103;54.300;10.180;2023-12-22T02:33:29;5.40;1.00
14057;DHT22;7103;54.300;10.180;2023-12-22T02:36:02;5.10;1.00
14057;DHT22;7103;54.300;10.180;2023-12-22T02:38:31;4.90;1.00
14057;DHT22;7103;54.300;10.180;2023-12-22T02:40:58;4.60;1.00
14057;DHT22;7103;54.300;10.180;2023-12-22T02:43:27;4.60;1.00
14057;DHT22;7103;54.300;10.180;2023-12-22T02:45:54;4.40;1.00
14057;DHT22;7103;54.300;10.180;2023-12-22T02:48:22;4.30;1.00
14057;DHT22;7103;54.300;10.180;2023-12-22T02:50:49;4.10;1.00
14057;DHT22;7103;54.300;10.180;2023-12-22T02:53:16;4.10;1.00
14057;DHT22;7103;54.300;10.180;2023-12-22T02:55:43;4.20;1.00
14057;DHT22;7103;54.300;10.180;2023-12-22T02:58:10;4.20;1.00
14057;DHT22;7103;54.300;10.180;2023-12-22T03:00:37;4.10;1.00
14057;DHT22;7103;54.300;10.180;2023-12-22T03:03:05;4.10;1.00
14057;DHT22;7103;54.300;10.180;2023-12-22T03:05:32;4.10;1.00
14057;DHT22;7103;54.300;10.180;2023-12-22T03:07:59;4.00;1.00
14057;DHT22;7103;54.300;10.180;2023-12-22T03:10:29;3.90;1.00
14057;DHT22;7103;54.300;10.180;2023-12-22T03:12:57;4.00;1.00
14057;DHT22;7103;54.300;10.180;2023-12-22T03:15:24;3.80;1.00
14057;DHT22;7103;54.300;10.180;2023-12-22T03:17:51;3.60;1.00
14057;DHT22;7103;54.300;10.180;2023-12-22T03:20:21;3.60;1.00
14057;DHT22;7103;54.300;10.180;2023-12-22T03:22:48;3.50;1.00
14057;DHT22;7103;54.300;10.180;2023-12-22T03:25:15;3.60;1.00
14057;DHT22;7103;54.300;10.180;2023-12-22T03:27:42;3.50;1.00
14057;DHT22;7103;54.300;10.180;2023-12-22T03:30:09;3.50;1.00
14057;DHT22;7103;54.300;10.180;2023-12-22T03:32:36;3.60;1.00
14057;DHT22;7103;54.300;10.180;2023-12-22T03:35:03;3.70;1.00
14057;DHT22;7103;54.300;10.180;2023-12-22T03:37:30;3.70;1.00
14057;DHT22;7103;54.300;10.180;2023-12-22T03:39:58;3.80;1.00
14057;DHT22;7103;54.300;10.180;2023-12-22T03:42:24;3.90;1.00
14057;DHT22;7103;54.300;10.180;2023-12-22T03:44:51;3.80;1.00
14057;DHT22;7103;54.300;10.180;2023-12-22T03:47:18;3.80;1.00
14057;DHT22;7103;54.300;10.180;2023-12-22T03:49:46;3.80;1.00
14057;DHT22;7103;54.300;10.180;2023-12-22T03:52:13;3.80;1.00
14057;DHT22;7103;54.300;10.180;2023-12-22T03:54:41;3.80;1.00
14057;DHT22;7103;54.300;10.180;2023-12-22T03:57:08;3.90;1.00
14057;DHT22;7103;54.300;10.180;2023-12-22T03:59:35;3.80;1.00
14057;DHT22;7103;54.300;10.180;2023-12-22T04:02:02;3.90;1.00
14057;DHT22;7103;54.300;10.180;2023-12-22T04:04:29;3.90;1.00
14057;DHT22;7103;54.300;10.180;2023-12-22T04:06:56;3.90;1.00
14057;DHT22;7103;54.300;10.180;2023-12-22T04:09:23;3.90;1.00
14057;DHT22;7103;54.300;10.180;2023-12-22T04:11:50;4.00;1.00
14057;DHT22;7103;54.300;10.180;2023-12-22T04:14:17;4.00;1.00
14057;DHT22;7103;54.300;10.180;2023-12-22T04:16:45;3.90;1.00
14057;DHT22;7103;54.300;10.180;2023-12-22T04:19:12;3.90;1.00
14057;DHT22;7103;54.300;10.180;2023-12-22T04:21:39;3.90;1.00
14057;DHT22;7103;54.300;10.180;2023-12-22T04:24:06;3.80;1.00
14057;DHT22;7103;54.300;10.180;2023-12-22T04:26:33;3.90;1.00
14057;DHT22;7103;54.300;10.180;2023-12-22T04:29:00;3.80;1.00
14057;DHT22;7103;54.300;10.180;2023-12-22T04:31:27;3.80;1.00
14057;DHT22;7103;54.300;10.180;2023-12-22T04:33:54;3.90;1.00
14057;DHT22;7103;54.300;10.180;2023-12-22T04:36:22;3.90;1.00
14057;DHT22;7103;54.300;10.180;2023-12-22T04:38:49;3.90;1.00
14057;DHT22;7103;54.300;10.180;2023-12-22T04:41:16;4.00;1.00
14057;DHT22;7103;54.300;10.180;2023-12-22T04:43:43;4.10;1.00
14057;DHT22;7103;54.300;10.180;2023-12-22T04:46:10;4.10;1.00
14057;DHT22;7103;54.300;10.180;2023-12-22T04:48:37;4.00;1.00
14057;DHT22;7103;54.300;10.180;2023-12-22T04:51:04;4.00;1.00
14057;DHT22;7103;54.300;10.180;2023-12-22T04:53:31;3.90;1.00
14057;DHT22;7103;54.300;10.180;2023-12-22T04:55:58;3.90;1.00
14057;DHT22;7103;54.300;10.180;2023-12-22T04:58:25;3.80;1.00
14057;DHT22;7103;54.300;10.180;2023-12-22T05:00:52;3.80;1.00
14057;DHT22;7103;54.300;10.180;2023-12-22T05:03:19;3.80;1.00
14057;DHT22;7103;54.300;10.180;2023-12-22T05:05:47;3.80;1.00
14057;DHT22;7103;54.300;10.180;2023-12-22T05:08:14;3.70;1.00
14057;DHT22;7103;54.300;10.180;2023-12-22T05:10:43;3.70;1.00
14057;DHT22;7103;54.300;10.180;2023-12-22T05:13:13;3.70;1.00
14057;DHT22;7103;54.300;10.180;2023-12-22T05:15:42;3.90;1.00
14057;DHT22;7103;54.300;10.180;2023-12-22T05:18:09;3.80;1.00
14057;DHT22;7103;54.300;10.180;2023-12-22T05:20:36;3.80;1.00
14057;DHT22;7103;54.300;10.180;2023-12-22T05:23:03;3.90;1.00
14057;DHT22;7103;54.300;10.180;2023-12-22T05:25:30;3.80;1.00
14057;DHT22;7103;54.300;10.180;2023-12-22T05:27:58;3.90;1.00
14057;DHT22;7103;54.300;10.180;2023-12-22T05:30:25;3.80;1.00
14057;DHT22;7103;54.300;10.180;2023-12-22T05:32:52;3.90;1.00
14057;DHT22;7103;54.300;10.180;2023-12-22T05:35:20;3.90;1.00
14057;DHT22;7103;54.300;10.180;2023-12-22T05:37:47;3.90;1.00
14057;DHT22;7103;54.300;10.180;2023-12-22T05:40:17;3.90;1.00
14057;DHT22;7103;54.300;10.180;2023-12-22T05:42:44;4.00;1.00
14057;DHT22;7103;54.300;10.180;2023-12-22T05:45:11;3.90;1.00
14057;DHT22;7103;54.300;10.180;2023-12-22T05:47:39;3.90;1.00
14057;DHT22;7103;54.300;10.180;2023-12-22T05:50:07;3.90;1.00
14057;DHT22;7103;54.300;10.180;2023-12-22T05:52:35;4.00;1.00
14057;DHT22;7103;54.300;10.180;2023-12-22T05:55:02;4.00;1.00
14057;DHT22;7103;54.300;10.180;2023-12-22T05:57:29;4.00;1.00
14057;DHT22;7103;54.300;10.180;2023-12-22T05:59:56;4.10;1.00
14057;DHT22;7103;54.300;10.180;2023-12-22T06:02:23;4.10;1.00
14057;DHT22;7103;54.300;10.180;2023-12-22T06:04:52;4.20;1.00
14057;DHT22;7103;54.300;10.180;2023-12-22T06:07:19;4.50;1.00
14057;DHT22;7103;54.300;10.180;2023-12-22T06:09:46;4.30;1.00
14057;DHT22;7103;54.300;10.180;2023-12-22T06:12:13;4.30;1.00
14057;DHT22;7103;54.300;10.180;2023-12-22T06:14:40;4.30;1.00
14057;DHT22;7103;54.300;10.180;2023-12-22T06:17:07;4.30;1.00
14057;DHT22;7103;54.300;10.180;2023-12-22T06:19:37;4.40;1.00
14057;DHT22;7103;54.300;10.180;2023-12-22T06:22:04;4.40;1.00
14057;DHT22;7103;54.300;10.180;2023-12-22T06:24:34;4.40;1.00
14057;DHT22;7103;54.300;10.180;2023-12-22T06:27:02;4.40;1.00
14057;DHT22;7103;54.300;10.180;2023-12-22T06:29:30;4.50;1.00
14057;DHT22;7103;54.300;10.180;2023-12-22T06:31:58;4.50;1.00
14057;DHT22;7103;54.300;10.180;2023-12-22T06:34:25;4.40;1.00
14057;DHT22;7103;54.300;10.180;2023-12-22T06:36:52;4.50;1.00
14057;DHT22;7103;54.300;10.180;2023-12-22T06:39:19;4.40;1.00
14057;DHT22;7103;54.300;10.180;2023-12-22T06:41:46;4.50;1.00
14057;DHT22;7103;54.300;10.180;2023-12-22T06:44:13;4.30;1.00
14057;DHT22;7103;54.300;10.180;2023-12-22T06:46:40;4.30;1.00
14057;DHT22;7103;54.300;10.180;2023-12-22T06:49:07;4.30;1.00
14057;DHT22;7103;54.300;10.180;2023-12-22T06:51:34;4.40;1.00
14057;DHT22;7103;54.300;10.180;2023-12-22T06:54:02;4.40;1.00
14057;DHT22;7103;54.300;10.180;2023-12-22T06:56:34;4.30;1.00
14057;DHT22;7103;54.300;10.180;2023-12-22T06:59:01;4.30;1.00
14057;DHT22;7103;54.300;10.180;2023-12-22T07:01:30;4.20;1.00
14057;DHT22;7103;54.300;10.180;2023-12-22T07:04:02;4.10;1.00
14057;DHT22;7103;54.300;10.180;2023-12-22T07:06:32;4.00;1.00
14057;DHT22;7103;54.300;10.180;2023-12-22T07:11:44;4.10;1.00
14057;DHT22;7103;54.300;10.180;2023-12-22T07:14:11;4.00;1.00
14057;DHT22;7103;54.300;10.180;2023-12-22T07:16:38;4.00;1.00
14057;DHT22;7103;54.300;10.180;2023-12-22T07:19:06;4.00;1.00
14057;DHT22;7103;54.300;10.180;2023-12-22T07:21:33;4.10;1.00
14057;DHT22;7103;54.300;10.180;2023-12-22T07:24:00;3.90;1.00
14057;DHT22;7103;54.300;10.180;2023-12-22T07:26:27;3.90;1.00
14057;DHT22;7103;54.300;10.180;2023-12-22T07:28:55;4.00;1.00
14057;DHT22;7103;54.300;10.180;2023-12-22T07:31:22;4.00;1.00
14057;DHT22;7103;54.300;10.180;2023-12-22T07:33:50;4.00;1.00
14057;DHT22;7103;54.300;10.180;2023-12-22T07:36:18;4.10;1.00
14057;DHT22;7103;54.300;10.180;2023-12-22T07:38:49;4.20;1.00
14057;DHT22;7103;54.300;10.180;2023-12-22T07:41:16;4.10;1.00
14057;DHT22;7103;54.300;10.180;2023-12-22T07:43:44;4.00;1.00
14057;DHT22;7103;54.300;10.180;2023-12-22T07:46:18;3.80;1.00
14057;DHT22;7103;54.300;10.180;2023-12-22T07:48:45;3.70;1.00
14057;DHT22;7103;54.300;10.180;2023-12-22T07:51:14;3.60;1.00
14057;DHT22;7103;54.300;10.180;2023-12-22T07:53:41;3.60;1.00
14057;DHT22;7103;54.300;10.180;2023-12-22T07:56:09;3.40;1.00
14057;DHT22;7103;54.300;10.180;2023-12-22T07:58:38;3.40;1.00
14057;DHT22;7103;54.300;10.180;2023-12-22T08:01:06;3.30;1.00
14057;DHT22;7103;54.300;10.180;2023-12-22T08:03:33;3.30;1.00
14057;DHT22;7103;54.300;10.180;2023-12-22T08:06:01;3.40;1.00
14057;DHT22;7103;54.300;10.180;2023-12-22T08:08:28;3.40;1.00
14057;DHT22;7103;54.300;10.180;2023-12-22T08:10:55;3.40;1.00
14057;DHT22;7103;54.300;10.180;2023-12-22T08:13:22;3.50;1.00
14057;DHT22;7103;54.300;10.180;2023-12-22T08:15:49;3.50;1.00
14057;DHT22;7103;54.300;10.180;2023-12-22T08:18:17;3.60;1.00
14057;DHT22;7103;54.300;10.180;2023-12-22T08:20:44;3.70;1.00
14057;DHT22;7103;54.300;10.180;2023-12-22T08:23:14;3.70;1.00
14057;DHT22;7103;54.300;10.180;2023-12-22T08:25:43;3.70;1.00
14057;DHT22;7103;54.300;10.180;2023-12-22T08:28:11;3.60;1.00
14057;DHT22;7103;54.300;10.180;2023-12-22T08:30:40;3.70;1.00
14057;DHT22;7103;54.300;10.180;2023-12-22T08:33:07;3.80;1.00
14057;DHT22;7103;54.300;10.180;2023-12-22T08:35:34;3.80;1.00
14057;DHT22;7103;54.300;10.180;2023-12-22T08:38:02;3.80;1.00
14057;DHT22;7103;54.300;10.180;2023-12-22T08:40:30;3.80;1.00
14057;DHT22;7103;54.300;10.180;2023-12-22T08:42:57;3.90;1.00
14057;DHT22;7103;54.300;10.180;2023-12-22T08:45:28;3.90;1.00
14057;DHT22;7103;54.300;10.180;2023-12-22T08:47:57;3.90;1.00
14057;DHT22;7103;54.300;10.180;2023-12-22T08:50:24;3.90;1.00
14057;DHT22;7103;54.300;10.180;2023-12-22T08:52:54;3.90;1.00
14057;DHT22;7103;54.300;10.180;2023-12-22T08:55:21;4.00;1.00
14057;DHT22;7103;54.300;10.180;2023-12-22T08:57:48;4.00;1.00
14057;DHT22;7103;54.300;10.180;2023-12-22T09:00:25;4.20;1.00
14057;DHT22;7103;54.300;10.180;2023-12-22T09:02:53;4.20;1.00
14057;DHT22;7103;54.300;10.180;2023-12-22T09:05:21;4.10;1.00
14057;DHT22;7103;54.300;10.180;2023-12-22T09:07:49;4.20;1.00
14057;DHT22;7103;54.300;10.180;2023-12-22T09:10:16;4.20;1.00
14057;DHT22;7103;54.300;10.180;2023-12-22T09:12:43;4.20;1.00
14057;DHT22;7103;54.300;10.180;2023-12-22T09:15:10;4.20;1.00
14057;DHT22;7103;54.300;10.180;2023-12-22T09:17:37;4.30;1.00
14057;DHT22;7103;54.300;10.180;2023-12-22T09:20:07;4.20;1.00
14057;DHT22;7103;54.300;10.180;2023-12-22T09:22:34;4.20;1.00
14057;DHT22;7103;54.300;10.180;2023-12-22T09:25:01;4.30;1.00
14057;DHT22;7103;54.300;10.180;2023-12-22T09:27:28;4.30;1.00
14057;DHT22;7103;54.300;10.180;2023-12-22T09:29:58;4.30;1.00
14057;DHT22;7103;54.300;10.180;2023-12-22T09:32:25;4.40;1.00
14057;DHT22;7103;54.300;10.180;2023-12-22T09:34:53;4.40;1.00
14057;DHT22;7103;54.300;10.180;2023-12-22T09:37:21;4.40;1.00
14057;DHT22;7103;54.300;10.180;2023-12-22T09:39:49;4.50;1.00
14057;DHT22;7103;54.300;10.180;2023-12-22T09:42:15;4.60;1.00
14057;DHT22;7103;54.300;10.180;2023-12-22T09:44:43;4.50;1.00
14057;DHT22;7103;54.300;10.180;2023-12-22T09:47:11;4.60;1.00
14057;DHT22;7103;54.300;10.180;2023-12-22T09:49:39;4.70;1.00
14057;DHT22;7103;54.300;10.180;2023-12-22T09:52:07;4.80;1.00
14057;DHT22;7103;54.300;10.180;2023-12-22T09:54:37;4.90;1.00
14057;DHT22;7103;54.300;10.180;2023-12-22T09:57:05;4.90;1.00
14057;DHT22;7103;54.300;10.180;2023-12-22T09:59:49;4.80;1.00
14057;DHT22;7103;54.300;10.180;2023-12-22T10:02:18;4.70;1.00
14057;DHT22;7103;54.300;10.180;2023-12-22T10:04:45;4.70;1.00
14057;DHT22;7103;54.300;10.180;2023-12-22T10:07:13;4.70;1.00
14057;DHT22;7103;54.300;10.180;2023-12-22T10:09:42;4.80;1.00
14057;DHT22;7103;54.300;10.180;2023-12-22T10:12:11;4.70;1.00
14057;DHT22;7103;54.300;10.180;2023-12-22T10:14:39;4.70;1.00
14057;DHT22;7103;54.300;10.180;2023-12-22T10:17:10;4.70;1.00
14057;DHT22;7103;54.300;10.180;2023-12-22T10:19:38;4.70;1.00
14057;DHT22;7103;54.300;10.180;2023-12-22T10:22:06;4.70;1.00
14057;DHT22;7103;54.300;10.180;2023-12-22T10:24:46;4.90;1.00
14057;DHT22;7103;54.300;10.180;2023-12-22T10:27:19;4.90;1.00
14057;DHT22;7103;54.300;10.180;2023-12-22T10:29:54;4.80;1.00
14057;DHT22;7103;54.300;10.180;2023-12-22T10:32:21;4.80;1.00
14057;DHT22;7103;54.300;10.180;2023-12-22T10:34:52;4.80;1.00
14057;DHT22;7103;54.300;10.180;2023-12-22T10:37:20;4.70;1.00
14057;DHT22;7103;54.300;10.180;2023-12-22T10:39:52;4.70;1.00
14057;DHT22;7103;54.300;10.180;2023-12-22T10:42:19;4.80;1.00
14057;DHT22;7103;54.300;10.180;2023-12-22T10:44:47;4.70;1.00
14057;DHT22;7103;54.300;10.180;2023-12-22T10:47:17;4.70;1.00
14057;DHT22;7103;54.300;10.180;2023-12-22T10:49:46;4.70;1.00
14057;DHT22;7103;54.300;10.180;2023-12-22T10:52:17;4.70;1.00
14057;DHT22;7103;54.300;10.180;2023-12-22T10:54:44;4.70;1.00
14057;DHT22;7103;54.300;10.180;2023-12-22T10:57:12;4.70;1.00
14057;DHT22;7103;54.300;10.180;2023-12-22T10:59:44;4.60;1.00
14057;DHT22;7103;54.300;10.180;2023-12-22T11:02:27;4.60;1.00
14057;DHT22;7103;54.300;10.180;2023-12-22T11:05:01;4.70;1.00
14057;DHT22;7103;54.300;10.180;2023-12-22T11:07:29;4.70;1.00
14057;DHT22;7103;54.300;10.180;2023-12-22T11:10:04;4.70;1.00
14057;DHT22;7103;54.300;10.180;2023-12-22T11:12:37;4.70;1.00
14057;DHT22;7103;54.300;10.180;2023-12-22T11:15:05;4.70;1.00
14057;DHT22;7103;54.300;10.180;2023-12-22T11:17:34;4.70;1.00
14057;DHT22;7103;54.300;10.180;2023-12-22T11:20:03;4.80;1.00
14057;DHT22;7103;54.300;10.180;2023-12-22T11:22:32;4.90;1.00
14057;DHT22;7103;54.300;10.180;2023-12-22T11:25:00;4.90;1.00
14057;DHT22;7103;54.300;10.180;2023-12-22T11:27:29;4.90;1.00
14057;DHT22;7103;54.300;10.180;2023-12-22T11:29:56;5.00;1.00
14057;DHT22;7103;54.300;10.180;2023-12-22T11:32:25;4.90;1.00
14057;DHT22;7103;54.300;10.180;2023-12-22T11:34:54;5.10;1.00
14057;DHT22;7103;54.300;10.180;2023-12-22T11:37:23;5.00;1.00
14057;DHT22;7103;54.300;10.180;2023-12-22T11:39:50;5.10;1.00
14057;DHT22;7103;54.300;10.180;2023-12-22T11:42:21;5.10;1.00
14057;DHT22;7103;54.300;10.180;2023-12-22T11:44:50;5.20;1.00
14057;DHT22;7103;54.300;10.180;2023-12-22T11:47:23;5.00;1.00
14057;DHT22;7103;54.300;10.180;2023-12-22T11:49:50;5.00;1.00
14057;DHT22;7103;54.300;10.180;2023-12-22T11:52:24;5.10;1.00
14057;DHT22;7103;54.300;10.180;2023-12-22T11:54:52;5.10;1.00
14057;DHT22;7103;54.300;10.180;2023-12-22T11:57:31;5.10;1.00
14057;DHT22;7103;54.300;10.180;2023-12-22T12:00:09;5.10;1.00
14057;DHT22;7103;54.300;10.180;2023-12-22T12:02:39;5.10;1.00
14057;DHT22;7103;54.300;10.180;2023-12-22T12:05:08;5.00;1.00
14057;DHT22;7103;54.300;10.180;2023-12-22T12:07:46;5.20;1.00
14057;DHT22;7103;54.300;10.180;2023-12-22T12:13:06;5.10;1.00
14057;DHT22;7103;54.300;10.180;2023-12-22T12:15:36;5.10;1.00
14057;DHT22;7103;54.300;10.180;2023-12-22T12:18:06;5.20;1.00
14057;DHT22;7103;54.300;10.180;2023-12-22T12:20:34;5.30;1.00
14057;DHT22;7103;54.300;10.180;2023-12-22T12:23:02;5.50;1.00
14057;DHT22;7103;54.300;10.180;2023-12-22T12:25:31;5.80;1.00
14057;DHT22;7103;54.300;10.180;2023-12-22T12:28:07;6.00;1.00
14057;DHT22;7103;54.300;10.180;2023-12-22T12:30:37;6.00;1.00
14057;DHT22;7103;54.300;10.180;2023-12-22T12:33:11;5.90;1.00
14057;DHT22;7103;54.300;10.180;2023-12-22T12:35:40;5.70;1.00
14057;DHT22;7103;54.300;10.180;2023-12-22T12:38:12;5.60;1.00
14057;DHT22;7103;54.300;10.180;2023-12-22T12:40:40;5.50;1.00
14057;DHT22;7103;54.300;10.180;2023-12-22T12:43:08;5.40;1.00
14057;DHT22;7103;54.300;10.180;2023-12-22T12:45:36;5.50;1.00
14057;DHT22;7103;54.300;10.180;2023-12-22T12:48:03;5.40;1.00
14057;DHT22;7103;54.300;10.180;2023-12-22T12:50:34;5.40;1.00
14057;DHT22;7103;54.300;10.180;2023-12-22T12:53:05;5.40;1.00
14057;DHT22;7103;54.300;10.180;2023-12-22T12:55:32;5.30;1.00
14057;DHT22;7103;54.300;10.180;2023-12-22T12:58:00;5.30;1.00
14057;DHT22;7103;54.300;10.180;2023-12-22T13:00:32;5.40;1.00
14057;DHT22;7103;54.300;10.180;2023-12-22T13:05:32;5.10;1.00
14057;DHT22;7103;54.300;10.180;2023-12-22T13:08:12;4.80;1.00
14057;DHT22;7103;54.300;10.180;2023-12-22T13:10:40;4.70;1.00
14057;DHT22;7103;54.300;10.180;2023-12-22T13:13:08;4.60;1.00
14057;DHT22;7103;54.300;10.180;2023-12-22T13:15:40;4.60;1.00
14057;DHT22;7103;54.300;10.180;2023-12-22T13:18:09;4.50;1.00
14057;DHT22;7103;54.300;10.180;2023-12-22T13:20:36;4.50;1.00
14057;DHT22;7103;54.300;10.180;2023-12-22T13:23:03;4.60;1.00
14057;DHT22;7103;54.300;10.180;2023-12-22T13:25:41;4.60;1.00
14057;DHT22;7103;54.300;10.180;2023-12-22T13:28:08;4.60;1.00
14057;DHT22;7103;54.300;10.180;2023-12-22T13:30:35;4.60;1.00
14057;DHT22;7103;54.300;10.180;2023-12-22T13:33:08;4.70;1.00
14057;DHT22;7103;54.300;10.180;2023-12-22T13:35:36;4.70;1.00
14057;DHT22;7103;54.300;10.180;2023-12-22T13:38:09;4.70;1.00
14057;DHT22;7103;54.300;10.180;2023-12-22T13:40:38;4.70;1.00
14057;DHT22;7103;54.300;10.180;2023-12-22T13:43:06;4.60;1.00
14057;DHT22;7103;54.300;10.180;2023-12-22T13:45:34;4.60;1.00
14057;DHT22;7103;54.300;10.180;2023-12-22T13:48:02;4.50;1.00
14057;DHT22;7103;54.300;10.180;2023-12-22T13:50:29;4.60;1.00
14057;DHT22;7103;54.300;10.180;2023-12-22T13:52:56;4.50;1.00
14057;DHT22;7103;54.300;10.180;2023-12-22T13:55:23;4.40;1.00
14057;DHT22;7103;54.300;10.180;2023-12-22T13:57:59;4.50;1.00
14057;DHT22;7103;54.300;10.180;2023-12-22T14:00:31;4.40;1.00
14057;DHT22;7103;54.300;10.180;2023-12-22T14:03:01;4.50;1.00
14057;DHT22;7103;54.300;10.180;2023-12-22T14:05:28;4.40;1.00
14057;DHT22;7103;54.300;10.180;2023-12-22T14:08:01;4.30;1.00
14057;DHT22;7103;54.300;10.180;2023-12-22T14:10:28;4.30;1.00
14057;DHT22;7103;54.300;10.180;2023-12-22T14:12:56;4.30;1.00
14057;DHT22;7103;54.300;10.180;2023-12-22T14:15:23;4.20;1.00
14057;DHT22;7103;54.300;10.180;2023-12-22T14:17:57;4.20;1.00
14057;DHT22;7103;54.300;10.180;2023-12-22T14:20:24;4.20;1.00
14057;DHT22;7103;54.300;10.180;2023-12-22T14:22:52;4.10;1.00
14057;DHT22;7103;54.300;10.180;2023-12-22T14:25:19;4.10;1.00
14057;DHT22;7103;54.300;10.180;2023-12-22T14:27:46;4.20;1.00
14057;DHT22;7103;54.300;10.180;2023-12-22T14:30:14;4.20;1.00
14057;DHT22;7103;54.300;10.180;2023-12-22T14:32:41;4.40;1.00
14057;DHT22;7103;54.300;10.180;2023-12-22T14:35:08;4.40;1.00
14057;DHT22;7103;54.300;10.180;2023-12-22T14:37:35;4.30;1.00
14057;DHT22;7103;54.300;10.180;2023-12-22T14:40:02;4.30;1.00
14057;DHT22;7103;54.300;10.180;2023-12-22T14:42:29;4.40;1.00
14057;DHT22;7103;54.300;10.180;2023-12-22T14:44:56;4.40;1.00
14057;DHT22;7103;54.300;10.180;2023-12-22T14:47:23;4.50;1.00
14057;DHT22;7103;54.300;10.180;2023-12-22T14:49:50;4.40;1.00
14057;DHT22;7103;54.300;10.180;2023-12-22T14:52:17;4.40;1.00
14057;DHT22;7103;54.300;10.180;2023-12-22T14:54:44;4.30;1.00
14057;DHT22;7103;54.300;10.180;2023-12-22T14:57:12;4.20;1.00
14057;DHT22;7103;54.300;10.180;2023-12-22T14:59:44;4.20;1.00
14057;DHT22;7103;54.300;10.180;2023-12-22T15:02:11;4.10;1.00
14057;DHT22;7103;54.300;10.180;2023-12-22T15:04:38;4.10;1.00
14057;DHT22;7103;54.300;10.180;2023-12-22T15:07:05;4.00;1.00
14057;DHT22;7103;54.300;10.180;2023-12-22T15:09:32;3.90;1.00
14057;DHT22;7103;54.300;10.180;2023-12-22T15:11:59;3.90;1.00
14057;DHT22;7103;54.300;10.180;2023-12-22T15:14:26;4.10;1.00
14057;DHT22;7103;54.300;10.180;2023-12-22T15:16:53;3.90;1.00
14057;DHT22;7103;54.300;10.180;2023-12-22T15:19:20;3.90;1.00
14057;DHT22;7103;54.300;10.180;2023-12-22T15:21:47;4.00;1.00
14057;DHT22;7103;54.300;10.180;2023-12-22T15:24:14;4.00;1.00
14057;DHT22;7103;54.300;10.180;2023-12-22T15:26:44;3.90;1.00
14057;DHT22;7103;54.300;10.180;2023-12-22T15:29:11;3.90;1.00
14057;DHT22;7103;54.300;10.180;2023-12-22T15:31:37;4.10;1.00
14057;DHT22;7103;54.300;10.180;2023-12-22T15:34:05;4.00;1.00
14057;DHT22;7103;54.300;10.180;2023-12-22T15:36:33;4.10;1.00
14057;DHT22;7103;54.300;10.180;2023-12-22T15:39:01;4.00;1.00
14057;DHT22;7103;54.300;10.180;2023-12-22T15:41:29;4.00;1.00
14057;DHT22;7103;54.300;10.180;2023-12-22T15:43:59;4.00;1.00
14057;DHT22;7103;54.300;10.180;2023-12-22T15:46:27;3.90;1.00
14057;DHT22;7103;54.300;10.180;2023-12-22T15:48:54;3.80;1.00
14057;DHT22;7103;54.300;10.180;2023-12-22T15:51:21;3.80;1.00
14057;DHT22;7103;54.300;10.180;2023-12-22T15:53:48;4.00;1.00
14057;DHT22;7103;54.300;10.180;2023-12-22T15:56:15;4.10;1.00
14057;DHT22;7103;54.300;10.180;2023-12-22T15:58:44;4.00;1.00
14057;DHT22;7103;54.300;10.180;2023-12-22T16:01:12;4.20;1.00
14057;DHT22;7103;54.300;10.180;2023-12-22T16:03:42;4.20;1.00
14057;DHT22;7103;54.300;10.180;2023-12-22T16:06:09;4.10;1.00
14057;DHT22;7103;54.300;10.180;2023-12-22T16:08:36;4.20;1.00
14057;DHT22;7103;54.300;10.180;2023-12-22T16:11:03;4.10;1.00
14057;DHT22;7103;54.300;10.180;2023-12-22T16:13:32;4.10;1.00
14057;DHT22;7103;54.300;10.180;2023-12-22T16:16:01;4.00;1.00